Latest Weather Observations for Mardie

IDW60801

Issued at 3:43 pm WST Sunday 15 December 2019 (issued every 10 minutes, with the page automatically refreshed every 10 minutes)

About weather observations | Map of weather stations | Latest weather observations for WA | Other Formats
Station Details ID: 005008 Name: MARDIE Lat: -21.19 Lon: 115.98 Height: 11.0 m
Data from the previous 72 hours. | See also: Recent months at Mardie
Date/Time
WST
Temp
°C
App
Temp
°C
Dew
Point
°C
Rel
Hum
%
Delta-T
°C
Wind Press
QNH
hPa
Press
MSL
hPa
Rain since
9am
mm
Dir  Spd
km/h
Gust
km/h
Spd
kts
Gust
kts
15/03:30pm 35.0 33.3 17.2 34 11.5 NW 22 30 12 16 1007.3 1007.2 0.0
15/03:00pm 35.2 33.2 17.4 34 11.5 NW 24 32 13 17 1007.5 1007.4 0.0
15/02:30pm 35.8 34.6 17.5 34 11.8 NW 20 28 11 15 1007.9 1007.9 0.0
15/02:00pm 35.0 34.1 18.1 36 11.0 NW 20 32 11 17 1008.0 1008.0 0.0
15/01:30pm 35.5 33.6 15.8 31 12.4 NNW 20 35 11 19 1008.3 1008.3 0.0
15/01:00pm 35.5 34.0 16.3 32 12.2 N 19 28 10 15 1008.5 1008.5 0.0
15/12:30pm 34.5 33.0 16.4 34 11.5 NNW 19 33 10 18 1008.7 1008.7 0.0
15/12:00pm 35.1 33.8 15.9 31 12.1 NNW 17 32 9 17 1008.8 1008.8 0.0
15/11:30am 35.5 34.8 16.3 32 12.2 NNW 15 24 8 13 1009.1 1009.1 0.0
15/11:00am 34.3 32.8 15.2 31 11.9 NNW 17 28 9 15 1009.3 1009.3 0.0
15/10:30am 34.3 33.3 14.7 30 12.1 N 13 26 7 14 1009.4 1009.4 0.0
15/10:00am 33.9 33.5 17.2 37 10.7 NNW 15 26 8 14 1009.8 1009.8 0.0
15/09:30am 32.7 33.5 18.1 42 9.4 NNW 11 22 6 12 1009.9 1009.9 0.0
15/09:00am 31.7 33.3 18.3 45 8.7 NNW 7 15 4 8 1009.8 1009.8 -
15/08:30am 31.3 33.6 20.6 53 7.1 NNW 9 15 5 8 1009.9 1009.9 -
15/08:00am 30.0 32.5 21.7 61 5.6 NNW 11 19 6 10 1009.6 1009.6 -
15/07:30am 29.8 32.9 22.8 66 4.8 NNW 11 17 6 9 1009.6 1009.6 -
15/07:00am 29.0 31.8 23.0 70 4.1 NNW 13 20 7 11 1009.2 1009.2 -
15/06:30am 27.5 32.1 22.4 73 3.4 N 2 6 1 3 1008.8 1008.8 -
15/06:00am 26.2 29.2 20.1 69 4.0 N 4 7 2 4 1008.3 1008.3 -
15/05:30am 25.3 27.8 19.9 72 3.5 N 6 9 3 5 1007.8 1007.8 -
15/05:00am 25.4 27.7 19.5 70 3.8 N 6 7 3 4 1007.8 1007.8 -
15/04:30am 26.0 27.7 19.4 67 4.3 NNE 9 11 5 6 1007.6 1007.5 -
15/04:00am 26.3 28.5 19.7 67 4.3 NNE 7 9 4 5 1007.8 1007.8 -
15/03:30am 26.5 28.7 20.3 68 4.1 NNE 9 15 5 8 1007.5 1007.4 -
15/03:00am 26.4 29.1 20.7 71 3.8 NNW 7 11 4 6 1007.2 1007.1 -
15/02:30am 26.1 27.1 17.7 60 5.3 NW 9 9 5 5 1007.2 1007.1 0.0
15/02:00am 26.6 27.8 17.4 57 5.8 NW 7 9 4 5 1007.5 1007.4 0.0
15/01:30am 26.7 26.9 15.7 51 6.7 NW 9 9 5 5 1007.7 1007.7 0.0
15/01:00am 26.7 26.2 12.7 42 8.2 NW 7 9 4 5 1008.0 1008.0 0.0
15/12:30am 27.0 26.4 12.3 40 8.5 NNW 7 9 4 5 1008.4 1008.4 0.0
15/12:00am 27.4 26.5 11.4 37 9.2 NW 7 9 4 5 1008.5 1008.5 0.0
 
Date/Time
WST
Temp
°C
App
Temp
°C
Dew
Point
°C
Rel
Hum
%
Delta-T
°C
Wind Press
QNH
hPa
Press
MSL
hPa
Rain since
9am
mm
Dir  Spd
km/h
Gust
km/h
Spd
kts
Gust
kts
14/11:30pm 28.2 27.3 11.3 35 9.7 E 7 11 4 6 1008.9 1008.9 0.0
14/11:00pm 30.1 30.6 11.6 32 10.8 CALM 0 0 0 0 1009.2 1009.2 0.0
14/10:30pm 30.8 28.9 11.7 31 11.1 ESE 13 17 7 9 1009.8 1009.8 0.0
14/10:00pm 31.0 28.1 12.4 32 11.0 E 19 28 10 15 1009.9 1009.9 0.0
14/09:30pm 31.2 28.6 12.1 31 11.2 ESE 17 24 9 13 1010.1 1010.1 0.0
14/09:00pm 31.6 26.5 11.9 30 11.6 ENE 30 39 16 21 1009.2 1009.2 0.0
14/08:30pm 32.4 28.3 12.6 30 11.8 ESE 26 33 14 18 1010.0 1010.0 0.0
14/08:00pm 33.0 31.0 12.6 29 12.2 E 15 20 8 11 1009.6 1009.6 0.0
14/07:30pm 32.8 29.8 12.4 29 12.1 ENE 20 26 11 14 1009.1 1009.1 0.0
14/07:00pm 32.7 29.1 12.9 30 11.9 E 24 32 13 17 1008.7 1008.7 0.0
14/06:30pm 33.9 27.8 11.7 26 13.1 E 35 43 19 23 1008.3 1008.3 0.0
14/06:00pm 35.2 30.0 11.6 24 14.0 ESE 30 46 16 25 1008.1 1008.1 0.0
14/05:53pm 36.3 35.2 13.1 25 14.1 ENE 11 46 6 25 1008.1 1008.1 0.0
14/05:30pm 35.3 34.8 17.0 33 11.7 NW 15 20 8 11 1006.6 1006.5 0.0
14/05:00pm 36.4 33.8 13.8 26 13.9 NW 20 28 11 15 1006.0 1005.9 0.0
14/04:30pm 36.7 33.2 14.6 26 13.8 WNW 26 35 14 19 1005.5 1005.4 0.0
14/04:00pm 37.5 33.6 12.2 22 15.3 NW 24 37 13 20 1005.5 1005.4 0.0
14/03:30pm 37.2 32.7 12.6 23 14.9 NW 28 39 15 21 1005.5 1005.4 0.0
14/03:00pm 37.7 35.3 14.3 25 14.6 NNW 20 32 11 17 1006.0 1005.9 0.0
14/02:30pm 37.3 34.6 14.6 26 14.2 NNW 22 37 12 20 1006.2 1006.1 0.0
14/02:00pm 38.3 36.7 16.6 28 14.0 NNW 20 32 11 17 1006.7 1006.6 0.0
14/01:30pm 39.3 36.0 15.0 24 15.4 NW 26 32 14 17 1006.4 1006.3 0.0
14/01:00pm 40.2 37.7 15.1 23 16.0 NW 22 28 12 15 1006.9 1006.8 0.0
14/12:30pm 39.3 37.3 15.0 24 15.4 NW 19 26 10 14 1007.5 1007.4 0.0
14/12:00pm 40.3 38.8 6.6 13 19.0 N 4 11 2 6 1008.0 1008.0 0.0
14/11:30am 39.7 37.5 9.2 16 17.8 ENE 11 22 6 12 1008.5 1008.5 0.0
14/11:00am 39.8 37.2 9.2 16 17.9 E 13 22 7 12 1008.8 1008.8 0.0
14/10:30am 38.9 35.3 8.5 16 17.5 SE 17 30 9 16 1009.2 1009.2 0.0
14/10:00am 38.5 37.1 10.8 19 16.5 SE 9 20 5 11 1009.4 1009.4 0.0
14/09:30am 37.1 36.3 11.1 21 15.4 SSE 6 17 3 9 1009.6 1009.6 0.0
14/09:00am 36.4 35.3 11.9 23 14.7 SSW 9 17 5 9 1009.4 1009.4 0.0
14/08:30am 35.9 34.5 12.2 24 14.2 S 11 17 6 9 1009.5 1009.5 0.0
14/08:00am 34.9 34.7 13.7 28 13.0 SSW 7 15 4 8 1009.7 1009.7 0.0
14/07:30am 33.8 34.2 15.3 33 11.5 SSW 7 13 4 7 1009.6 1009.6 0.0
14/07:00am 31.9 32.0 16.6 39 9.7 SSW 11 13 6 7 1009.4 1009.4 0.0
14/06:30am 30.5 31.4 16.5 43 8.8 SSW 7 11 4 6 1009.6 1009.6 0.0
14/06:00am 28.5 31.5 20.0 60 5.6 SW 4 11 2 6 1009.5 1009.5 0.0
14/05:30am 27.8 31.4 20.6 65 4.7 NNW 2 6 1 3 1008.8 1008.8 0.0
14/05:00am 28.2 31.3 21.0 65 4.8 NNW 6 9 3 5 1008.5 1008.5 0.0
14/04:30am 28.4 32.3 20.4 62 5.3 CALM 0 4 0 2 1008.4 1008.4 0.0
14/04:00am 28.2 31.9 20.7 63 5.0 NNW 2 6 1 3 1008.5 1008.5 0.0
14/03:30am 27.9 30.8 20.7 65 4.8 NNW 6 9 3 5 1008.3 1008.3 0.0
14/03:00am 26.8 27.9 17.0 55 6.1 N 7 9 4 5 1008.4 1008.4 0.0
14/02:30am 27.7 28.2 16.6 50 6.9 ENE 9 11 5 6 1008.3 1008.3 0.0
14/02:00am 28.1 29.7 17.0 51 7.0 E 4 6 2 3 1008.5 1008.5 0.0
14/01:30am 28.1 28.5 17.3 52 6.8 E 11 17 6 9 1008.8 1008.8 0.0
14/01:00am 28.5 29.9 17.4 51 7.0 NW 6 7 3 4 1008.3 1008.3 0.0
14/12:30am 28.8 29.6 16.4 47 7.7 WNW 7 9 4 5 1008.8 1008.8 0.0
14/12:00am 29.3 30.4 16.5 46 8.0 W 6 9 3 5 1009.1 1009.1 0.0
 
Date/Time
WST
Temp
°C
App
Temp
°C
Dew
Point
°C
Rel
Hum
%
Delta-T
°C
Wind Press
QNH
hPa
Press
MSL
hPa
Rain since
9am
mm
Dir  Spd
km/h
Gust
km/h
Spd
kts
Gust
kts
13/11:30pm 30.1 30.7 16.9 45 8.3 WSW 9 13 5 7 1009.9 1009.9 0.0
13/11:00pm 30.6 30.4 17.7 46 8.2 WSW 15 19 8 10 1010.2 1010.2 0.0
13/10:30pm 31.2 31.5 17.9 45 8.5 WSW 13 19 7 10 1010.6 1010.6 0.0
13/10:00pm 31.1 30.9 16.7 42 9.1 WSW 13 17 7 9 1010.6 1010.6 0.0
13/09:30pm 31.6 32.0 16.4 40 9.5 SW 9 13 5 7 1010.8 1010.8 0.0
13/09:00pm 31.5 30.4 17.4 43 9.0 SW 19 26 10 14 1011.2 1011.2 0.0
13/08:30pm 31.4 32.6 16.9 41 9.2 NNE 6 7 3 4 1010.1 1010.1 0.0
13/08:00pm 31.3 33.0 17.2 42 9.0 NNW 4 6 2 3 1009.7 1009.7 0.0
13/07:30pm 32.0 32.0 17.1 41 9.5 WSW 13 17 7 9 1009.8 1009.8 0.0
13/07:00pm 32.4 33.1 17.1 40 9.7 WNW 9 13 5 7 1009.3 1009.3 0.0
13/06:30pm 32.8 32.2 16.6 38 10.2 NW 15 20 8 11 1008.4 1008.4 0.0
13/06:00pm 33.5 33.7 16.8 36 10.6 N 11 20 6 11 1008.3 1008.3 0.0
13/05:30pm 34.0 32.7 16.8 35 11.0 N 19 26 10 14 1007.5 1007.4 0.0
13/05:00pm 34.1 32.3 16.0 34 11.4 NNW 20 28 11 15 1007.4 1007.3 0.0
13/04:30pm 35.2 33.4 16.0 31 12.1 NNW 20 33 11 18 1006.9 1006.8 0.0
13/04:00pm 35.6 32.6 14.8 28 13.0 NNW 24 35 13 19 1006.7 1006.6 0.0
13/03:30pm 37.5 34.7 15.3 26 14.0 N 24 39 13 21 1006.6 1006.5 0.0
13/03:00pm 37.9 34.3 13.2 23 15.2 N 24 39 13 21 1006.7 1006.6 0.0
13/02:30pm 37.8 33.5 13.1 23 15.1 N 28 37 15 20 1007.0 1006.9 0.0
13/02:00pm 39.9 35.0 12.7 20 16.7 N 30 44 16 24 1007.2 1007.1 0.0
13/01:30pm 39.2 35.0 13.6 22 15.9 N 28 41 15 22 1007.5 1007.4 0.0
13/01:00pm 39.0 35.2 14.7 23 15.3 N 28 43 15 23 1007.9 1007.9 0.0
13/12:30pm 38.9 35.3 15.3 25 15.0 N 28 39 15 21 1008.2 1008.2 0.0
13/12:00pm 40.9 37.5 5.9 12 19.6 ENE 13 24 7 13 1008.7 1008.7 0.0
13/11:30am 41.7 38.3 7.7 13 19.6 E 15 33 8 18 1009.1 1009.1 0.0
13/11:00am 39.8 35.9 7.3 14 18.5 E 17 32 9 17 1009.6 1009.6 0.0
13/10:30am 40.1 36.2 8.5 15 18.3 ENE 19 32 10 17 1010.0 1010.0 0.0
13/10:00am 38.5 34.5 9.1 17 17.0 E 20 39 11 21 1010.4 1010.4 0.0
13/09:30am 37.8 33.1 9.4 18 16.5 E 24 32 13 17 1010.6 1010.6 0.0
13/09:00am 37.6 33.3 9.2 18 16.4 E 22 35 12 19 1010.7 1010.7 0.0
13/08:30am 36.6 32.5 10.0 20 15.5 E 22 32 12 17 1010.8 1010.8 0.0
13/08:00am 35.5 32.1 10.5 22 14.6 E 19 22 10 12 1010.8 1010.8 0.0
13/07:30am 34.4 33.2 11.5 25 13.5 ESE 9 19 5 10 1011.0 1011.0 0.0
13/07:00am 32.5 32.7 14.1 32 11.2 SSW 6 7 3 4 1010.6 1010.6 0.0
13/06:30am 29.9 30.7 14.8 39 9.2 SSW 4 6 2 3 1010.3 1010.3 0.0
13/06:00am 27.7 27.9 14.7 45 7.9 SW 7 7 4 4 1009.9 1009.9 0.0
13/05:30am 27.6 27.9 14.6 45 7.8 WSW 6 7 3 4 1009.4 1009.4 0.0
13/05:00am 28.1 28.6 15.1 45 7.9 ESE 6 7 3 4 1009.1 1009.1 0.0
13/04:30am 28.7 29.3 15.2 43 8.2 ESE 6 9 3 5 1009.3 1009.3 0.0
13/04:00am 28.6 27.1 16.8 48 7.4 E 20 28 11 15 1009.2 1009.2 0.0
13/03:30am 29.3 30.4 18.1 51 7.2 SSW 9 11 5 6 1008.2 1008.2 0.0
13/03:00am 30.0 31.5 19.7 54 6.8 WSW 11 19 6 10 1008.2 1008.2 0.0
13/02:30am 30.6 32.4 21.1 57 6.4 WSW 13 17 7 9 1008.2 1008.2 0.0
13/02:00am 30.7 32.2 20.6 54 6.7 WSW 13 17 7 9 1007.9 1007.9 0.0
13/01:30am 31.3 31.7 17.2 42 9.0 W 11 15 6 8 1008.0 1008.0 0.0
13/01:00am 31.6 30.9 15.5 37 10.0 WNW 13 15 7 8 1008.1 1008.1 0.0
13/12:30am 32.3 30.6 13.5 32 11.3 WSW 15 20 8 11 1008.6 1008.6 0.0
13/12:00am 32.6 30.2 13.8 32 11.4 WSW 19 24 10 13 1009.3 1009.3 0.0
 
Date/Time
WST
Temp
°C
App
Temp
°C
Dew
Point
°C
Rel
Hum
%
Delta-T
°C
Wind Press
QNH
hPa
Press
MSL
hPa
Rain since
9am
mm
Dir  Spd
km/h
Gust
km/h
Spd
kts
Gust
kts
12/11:30pm 32.3 30.5 14.4 33 10.9 WSW 17 22 9 12 1009.8 1009.8 0.0
12/11:00pm 31.9 30.9 14.5 34 10.6 WSW 13 15 7 8 1010.1 1010.1 0.0
12/10:30pm 31.2 32.6 17.9 45 8.5 SW 7 13 4 7 1010.7 1010.7 0.0
12/10:00pm 30.5 33.6 21.0 57 6.3 S 6 11 3 6 1011.0 1011.0 0.0
12/09:30pm 32.5 32.6 17.5 40 9.6 S 13 17 7 9 1011.1 1011.1 0.0
12/09:00pm 32.4 31.2 17.5 41 9.5 SSW 20 41 11 22 1010.9 1010.9 0.0
12/08:51pm 31.6 31.7 19.2 47 8.1 SW 17 41 9 22 1011.1 1011.1 0.0
12/08:30pm 30.9 32.8 20.5 54 6.9 WSW 11 15 6 8 1009.7 1009.7 0.0
12/08:00pm 31.1 32.5 20.4 53 7.1 W 13 17 7 9 1009.3 1009.3 0.0
12/07:30pm 32.1 31.7 19.0 45 8.6 W 19 26 10 14 1008.6 1008.6 0.0
12/07:00pm 32.6 33.6 19.5 46 8.6 WNW 13 17 7 9 1008.5 1008.5 0.0
12/06:30pm 33.0 35.0 19.1 43 9.1 ESE 7 13 4 7 1009.1 1009.1 0.0
12/06:00pm 33.2 33.9 20.4 47 8.6 W 17 26 9 14 1007.7 1007.7 0.0
12/05:30pm 34.2 34.2 20.2 43 9.3 WNW 20 28 11 15 1007.0 1006.9 0.0
12/05:00pm 34.8 34.0 19.2 39 10.3 WNW 22 32 12 17 1007.0 1006.9 0.0
12/04:30pm 36.2 34.4 17.8 33 12.0 WNW 24 32 13 17 1007.0 1006.9 0.0
12/04:00pm 37.2 35.3 17.7 31 12.7 NW 24 32 13 17 1006.5 1006.4 0.0

Other formats

Comma delimited format used in spreadsheet applications
http://www.bom.gov.au/fwo/IDW60801/IDW60801.94306.axf

JavaScript Object Notation format (JSON) in row-major order
http://www.bom.gov.au/fwo/IDW60801/IDW60801.94306.json

Data quality

Most of these data are generated automatically and are frequently updated. Quality checks on data are not normally performed. It is possible for incorrect values to appear. Refer to information at About Latest Weather Observations and please check the disclaimer before using these data.